Bastia - Poretta Airport

Airport
ICAO code: 
LFKB
IATA Code: 
BIA
Summary
ICAO Region: 
EUR
Territory: 
Location: 
Lucciana, Haute-Corse
Serving: 
Bastia
Elevation: 
26 ft
Coordinates: 
Aerial View: 
42° 33' 8.961" N, 9° 29' 1.182" E
Airport BS: 
Bird Strike
Metar
Observation
LFKB 302100Z AUTO 23008KT CAVOK 07/M01 Q1018 NOSIG
Station
Bastia
Date/Time
2021-11-30 21:00:00
Wind direction
230°
Wind speed
08 kts
Lowest cloud amount
clouds and visibility OK
Temperature
7°C
Dew point
-1°C
Humidity
56%
QNH
1018 hPa
Weather condition
n/a

Description

International airport serving northern Corsica.

Climatology

Dry-summer subtropical ”Mediterranean" climate (Köppen climate classification Csa) - characterized by hot, dry summers and mild winters. During the summer, subtropical high pressure cells dominate, making rainfall unlikely except for the occasional thunderstorm. In the winter, periodic storms bring rain (snow at higher elevations).

Runways

Designator Length Width Surface Rops
16/34 2519 45 ASP Yes/Yes
Airport map: 
Aerial View: 

SKYbrary Partners:

Safety knowledge contributed by: